McCanna, North Dakota
Current Conditions -  °F | °C
As of 5:58 AM on Sunday 21 Dec 2014 (Local Time) from KRDR Reporting Station
Overcast Overcast  
Wind Chill: 16°   Ceiling: 300
Heat Index: 29°   Visibility: 7mi
Dew Point: 29°   Wind: 18mph
Humidity: 100%   Direction: 190°S
Pressure: 29.71"   Gusts: 23mph
Location:  47.8728°N, 97.7386°W
Report Text: KRDR 211158Z AUTO 19016G20KT 7SM R17/5500FT OVC003 M02/M02 A2971 RMK AO2 SLP078 60000 T10191019 11008 21020 57022
Loading
Personal Weather Stations






























Interactive Weather Map New forecast layout! Learn more

10-Day Weather Forecast

Advertisements
Track Severe Weather on mobile